Time;durP1;ratioP1;P1;durP2;ratioP2;P2;SDS_P1;SDS_P2;PMS_P1;PMS_P2;Temp;Humidity;BMP_temperature;BMP_pressure;BME280_temperature;BME280_humidity;BME280_pressure;Samples;Min_cycle;Max_cycle;Signal;HPM_P1;HPM_P2
2022/12/10 00:00:15;;;;;;;5.97;5.40;;;20.40;42.90;;;;;;5052088;28;20053;-37
2022/12/10 00:02:43;;;;;;;6.25;5.43;;;20.40;43.50;;;;;;5052198;28;20055;-37
2022/12/10 00:05:10;;;;;;;7.03;6.10;;;20.30;42.80;;;;;;5051841;28;20186;-37
2022/12/10 00:07:36;;;;;;;7.18;5.78;;;20.30;42.60;;;;;;5051725;28;20044;-37
2022/12/10 00:10:04;;;;;;;7.75;6.18;;;20.30;42.50;;;;;;5052085;28;20384;-36
2022/12/10 00:12:30;;;;;;;7.72;6.18;;;20.20;42.40;;;;;;5051625;28;20441;-37
2022/12/10 00:14:57;;;;;;;6.53;5.75;;;20.20;42.40;;;;;;5052043;28;20049;-36
2022/12/10 00:17:23;;;;;;;7.32;6.07;;;20.20;42.30;;;;;;5051636;28;20048;-37
2022/12/10 00:19:52;;;;;;;7.30;6.00;;;20.10;42.30;;;;;;5051929;28;20057;-37
2022/12/10 00:22:18;;;;;;;6.90;5.78;;;20.10;42.30;;;;;;5051618;28;20055;-38
2022/12/10 00:24:45;;;;;;;8.43;6.13;;;20.00;42.30;;;;;;5052012;28;20048;-37
2022/12/10 00:27:12;;;;;;;7.85;6.03;;;19.90;42.30;;;;;;5051535;28;20045;-37
2022/12/10 00:29:38;;;;;;;6.35;5.75;;;19.90;42.40;;;;;;5051611;28;20067;-36
2022/12/10 00:32:05;;;;;;;7.35;6.15;;;19.80;42.50;;;;;;5051490;28;20041;-37
2022/12/10 00:34:32;;;;;;;7.93;5.95;;;19.80;42.60;;;;;;5051499;28;20045;-37
2022/12/10 00:37:00;;;;;;;7.15;5.95;;;19.60;42.50;;;;;;5040972;28;20491;-38
2022/12/10 00:39:27;;;;;;;7.60;6.05;;;19.60;42.60;;;;;;5031072;28;20053;-37
2022/12/10 00:41:54;;;;;;;6.43;5.63;;;19.60;42.70;;;;;;5040469;28;20059;-37
2022/12/10 00:44:20;;;;;;;7.38;6.22;;;19.50;42.70;;;;;;5050042;28;20052;-37
2022/12/10 00:46:47;;;;;;;7.00;6.13;;;19.40;42.70;;;;;;5051477;28;20045;-37
2022/12/10 00:49:14;;;;;;;6.13;5.30;;;19.40;42.80;;;;;;5051351;28;20059;-37
2022/12/10 00:51:40;;;;;;;7.28;5.57;;;19.30;42.80;;;;;;5051513;28;20048;-37
2022/12/10 00:54:09;;;;;;;6.18;5.57;;;19.30;42.90;;;;;;5051166;28;20141;-36
2022/12/10 00:56:36;;;;;;;6.53;5.20;;;19.20;42.90;;;;;;5051346;28;20106;-37
2022/12/10 00:59:02;;;;;;;6.63;5.38;;;19.20;43.10;;;;;;5051151;28;20580;-37
2022/12/10 01:01:31;;;;;;;6.82;5.60;;;19.20;43.40;;;;;;5051420;28;20049;-37
2022/12/10 01:03:59;;;;;;;6.47;5.50;;;19.10;43.20;;;;;;5050844;28;20052;-37
2022/12/10 01:06:26;;;;;;;7.47;5.80;;;19.10;43.30;;;;;;5053798;28;20049;-36
2022/12/10 01:08:54;;;;;;;6.93;5.55;;;19.00;43.90;;;;;;5055560;28;20078;-36
2022/12/10 01:11:22;;;;;;;6.68;5.70;;;19.00;43.40;;;;;;5054671;28;20041;-37
2022/12/10 01:13:49;;;;;;;5.93;5.32;;;19.00;43.40;;;;;;5054995;28;20045;-37
2022/12/10 01:16:18;;;;;;;6.57;5.70;;;18.90;43.40;;;;;;5055276;28;20055;-37
2022/12/10 01:18:44;;;;;;;6.97;5.80;;;18.90;43.50;;;;;;5054714;28;20132;-36
2022/12/10 01:21:12;;;;;;;7.45;6.15;;;18.80;43.50;;;;;;5054995;28;20051;-37
2022/12/10 01:23:39;;;;;;;6.13;5.40;;;18.80;43.60;;;;;;5054628;28;20078;-36
2022/12/10 01:26:07;;;;;;;6.85;6.07;;;18.70;43.60;;;;;;5054782;28;20057;-37
2022/12/10 01:28:37;;;;;;;6.40;5.78;;;18.70;43.60;;;;;;5054878;28;20064;-37
2022/12/10 01:31:05;;;;;;;7.20;5.90;;;18.70;43.60;;;;;;5054831;28;20059;-37
2022/12/10 01:33:32;;;;;;;7.75;6.13;;;18.60;43.70;;;;;;5054638;28;20053;-36
2022/12/10 01:36:02;;;;;;;6.43;5.80;;;18.60;43.70;;;;;;5054292;28;20045;-37
2022/12/10 01:38:29;;;;;;;6.55;5.18;;;18.60;43.70;;;;;;5054469;28;20044;-36
2022/12/10 01:40:56;;;;;;;7.10;6.25;;;18.50;43.70;;;;;;5054828;28;20075;-37
2022/12/10 01:43:22;;;;;;;6.95;6.05;;;18.50;43.80;;;;;;5054465;28;20059;-37
2022/12/10 01:45:50;;;;;;;6.68;5.50;;;18.50;43.90;;;;;;5054519;28;20055;-37
2022/12/10 01:48:17;;;;;;;6.90;5.65;;;18.40;43.80;;;;;;5054560;28;20464;-36
2022/12/10 01:50:44;;;;;;;6.50;5.57;;;18.40;43.90;;;;;;5054304;28;20059;-37
2022/12/10 01:53:10;;;;;;;6.88;5.70;;;18.40;43.90;;;;;;5054056;28;20048;-37
2022/12/10 01:55:43;;;;;;;6.97;6.10;;;18.30;43.90;;;;;;5054302;28;20049;-37
2022/12/10 01:58:10;;;;;;;6.03;5.30;;;18.30;43.90;;;;;;5054098;28;20053;-37
2022/12/10 02:00:38;;;;;;;6.95;5.93;;;18.30;43.90;;;;;;5054201;28;20049;-36
2022/12/10 02:03:08;;;;;;;7.60;5.90;;;18.30;44.00;;;;;;5054169;28;20049;-36
2022/12/10 02:05:37;;;;;;;7.35;5.78;;;18.20;44.00;;;;;;5053052;28;20128;-36
2022/12/10 02:08:07;;;;;;;7.05;6.07;;;18.20;44.00;;;;;;5054134;28;20120;-36
2022/12/10 02:10:44;;;;;;;6.80;5.97;;;18.20;44.00;;;;;;5053789;28;20055;-36
2022/12/10 02:13:12;;;;;;;7.43;5.82;;;18.20;44.10;;;;;;5054423;28;20045;-36
2022/12/10 02:15:41;;;;;;;6.80;6.10;;;18.10;44.10;;;;;;5054074;28;20045;-37
2022/12/10 02:18:10;;;;;;;7.82;5.68;;;18.10;44.10;;;;;;5053297;28;20053;-37
2022/12/10 02:20:39;;;;;;;7.22;6.18;;;18.10;44.10;;;;;;5053355;28;20059;-36
2022/12/10 02:23:07;;;;;;;7.65;6.70;;;18.00;44.10;;;;;;5053494;28;20532;-37
2022/12/10 02:25:37;;;;;;;7.07;5.93;;;18.00;44.10;;;;;;5053921;28;20051;-36
2022/12/10 02:28:06;;;;;;;8.00;6.13;;;18.00;44.20;;;;;;5053926;28;20055;-37
2022/12/10 02:30:34;;;;;;;7.88;6.15;;;18.00;44.20;;;;;;5053903;28;20152;-37
2022/12/10 02:33:01;;;;;;;7.13;6.32;;;17.90;44.20;;;;;;5053363;28;20049;-36
2022/12/10 02:35:29;;;;;;;7.40;6.38;;;17.90;44.20;;;;;;5053170;28;20041;-36
2022/12/10 02:37:57;;;;;;;7.10;6.25;;;17.90;44.30;;;;;;5053179;28;20497;-36
2022/12/10 02:40:24;;;;;;;7.45;6.30;;;17.90;44.30;;;;;;5053564;28;20045;-36
2022/12/10 02:42:52;;;;;;;6.85;6.10;;;17.80;44.30;;;;;;5053271;28;20585;-36
2022/12/10 02:45:19;;;;;;;7.47;6.10;;;17.80;44.30;;;;;;5053545;28;20408;-37
2022/12/10 02:47:47;;;;;;;6.80;5.80;;;17.80;44.40;;;;;;5052878;28;20059;-36
2022/12/10 02:50:13;;;;;;;7.82;6.05;;;17.70;44.40;;;;;;5053372;28;20049;-36
2022/12/10 02:52:40;;;;;;;8.05;6.38;;;17.70;44.40;;;;;;5052979;28;20425;-37
2022/12/10 02:55:09;;;;;;;7.18;6.47;;;17.70;44.50;;;;;;5053209;28;20066;-36
2022/12/10 02:57:37;;;;;;;7.40;6.55;;;17.70;44.50;;;;;;5053342;28;20055;-37
2022/12/10 03:00:07;;;;;;;7.13;6.13;;;17.60;44.50;;;;;;5053011;28;20055;-36
2022/12/10 03:02:40;;;;;;;7.40;6.55;;;17.60;44.60;;;;;;5052642;28;20140;-37
2022/12/10 03:05:13;;;;;;;8.52;7.03;;;17.60;44.60;;;;;;5053306;28;20076;-36
2022/12/10 03:07:41;;;;;;;7.10;6.10;;;17.50;44.60;;;;;;5053326;28;20156;-36
2022/12/10 03:10:09;;;;;;;7.70;6.60;;;17.50;44.60;;;;;;5053048;28;20044;-36
2022/12/10 03:12:37;;;;;;;8.30;6.80;;;17.50;44.70;;;;;;5052349;28;20045;-36
2022/12/10 03:15:06;;;;;;;8.88;7.15;;;17.50;44.70;;;;;;5053057;28;20061;-36
2022/12/10 03:17:32;;;;;;;8.32;7.07;;;17.50;44.80;;;;;;5052482;28;20045;-36
2022/12/10 03:19:59;;;;;;;9.15;7.13;;;17.40;44.80;;;;;;5052762;28;20048;-36
2022/12/10 03:22:27;;;;;;;8.32;6.97;;;17.40;44.90;;;;;;5052439;28;20052;-36
2022/12/10 03:24:54;;;;;;;9.05;7.10;;;17.30;44.80;;;;;;5052894;28;20160;-36
2022/12/10 03:27:21;;;;;;;7.65;6.88;;;17.30;44.90;;;;;;5052570;28;20051;-36
2022/12/10 03:29:50;;;;;;;6.93;6.20;;;17.30;44.90;;;;;;5052818;28;20055;-35
2022/12/10 03:32:17;;;;;;;8.75;7.15;;;17.30;45.00;;;;;;5051973;28;20514;-36
2022/12/10 03:34:43;;;;;;;9.25;6.90;;;17.20;44.90;;;;;;5052267;28;20051;-37
2022/12/10 03:37:10;;;;;;;8.77;6.93;;;17.20;45.00;;;;;;5052048;28;20074;-36
2022/12/10 03:39:38;;;;;;;8.88;7.43;;;17.20;45.00;;;;;;5052397;28;20493;-37
2022/12/10 03:42:05;;;;;;;8.63;6.85;;;17.20;45.00;;;;;;5052426;28;20052;-36
2022/12/10 03:44:33;;;;;;;8.60;7.28;;;17.20;45.10;;;;;;5051628;28;20049;-36
2022/12/10 03:46:59;;;;;;;9.15;7.68;;;17.10;45.10;;;;;;5052394;28;20048;-37
2022/12/10 03:49:26;;;;;;;8.80;7.03;;;17.10;45.10;;;;;;5052270;28;20135;-37
2022/12/10 03:51:53;;;;;;;8.98;7.53;;;17.10;45.10;;;;;;5050658;28;20059;-37
2022/12/10 03:54:20;;;;;;;8.50;7.22;;;17.10;45.20;;;;;;5051864;28;20063;-36
2022/12/10 03:56:48;;;;;;;8.65;7.30;;;17.00;45.20;;;;;;5052124;28;20083;-37
2022/12/10 03:59:14;;;;;;;9.77;7.75;;;17.00;45.20;;;;;;5051694;28;20395;-37
2022/12/10 04:01:41;;;;;;;10.95;8.02;;;16.90;45.20;;;;;;5051985;28;20045;-36
2022/12/10 04:04:08;;;;;;;9.07;7.40;;;16.90;45.20;;;;;;5051785;28;20049;-36
2022/12/10 04:06:35;;;;;;;10.13;8.15;;;16.90;45.30;;;;;;5052345;28;20417;-36
2022/12/10 04:09:01;;;;;;;11.35;7.90;;;16.90;45.30;;;;;;5052047;28;20056;-36
2022/12/10 04:11:28;;;;;;;9.38;8.02;;;16.90;45.40;;;;;;5051782;28;20063;-37
2022/12/10 04:16:37;;;;;;;10.68;8.23;;;16.80;45.40;;;;;;5039508;28;20145;-36
2022/12/10 04:19:05;;;;;;;10.60;8.20;;;16.80;45.50;;;;;;5051760;28;20498;-36
2022/12/10 04:27:06;;;;;;;10.13;8.70;;;16.80;45.50;;;;;;5051608;28;20413;-36
2022/12/10 04:29:34;;;;;;;11.65;9.10;;;16.80;45.50;;;;;;5051670;28;20127;-36
2022/12/10 04:32:00;;;;;;;11.98;9.38;;;16.80;45.50;;;;;;5051804;28;20407;-36
2022/12/10 04:34:27;;;;;;;9.98;8.27;;;16.80;45.50;;;;;;5051632;28;20053;-36
2022/12/10 04:36:54;;;;;;;12.45;9.27;;;16.80;45.50;;;;;;5050115;28;20057;-36
2022/12/10 04:39:21;;;;;;;11.30;9.18;;;16.80;45.50;;;;;;5051907;28;20468;-36
2022/12/10 04:41:49;;;;;;;11.05;8.70;;;16.90;45.50;;;;;;5051405;28;20051;-36
2022/12/10 04:44:15;;;;;;;12.23;8.75;;;16.90;45.40;;;;;;5051105;28;20049;-36
2022/12/10 04:46:43;;;;;;;11.35;9.02;;;16.90;45.30;;;;;;5051817;28;20052;-36
2022/12/10 04:49:10;;;;;;;11.27;8.60;;;16.90;45.30;;;;;;5051455;28;20063;-37
2022/12/10 04:51:37;;;;;;;11.63;9.20;;;17.00;45.30;;;;;;5051561;28;20049;-36
2022/12/10 04:54:04;;;;;;;12.15;9.20;;;17.00;45.30;;;;;;5051337;28;20627;-37
2022/12/10 04:56:31;;;;;;;12.70;8.95;;;17.00;45.30;;;;;;5051069;28;20051;-36
2022/12/10 04:58:58;;;;;;;12.18;9.48;;;17.00;45.20;;;;;;5051246;28;20049;-37
2022/12/10 05:01:25;;;;;;;11.30;8.90;;;17.00;45.20;;;;;;5051234;28;20060;-36
2022/12/10 05:03:53;;;;;;;11.23;9.10;;;17.00;45.10;;;;;;5051424;28;20055;-37
2022/12/10 05:06:20;;;;;;;11.38;9.35;;;17.10;45.20;;;;;;5051259;28;20071;-36
2022/12/10 05:08:47;;;;;;;12.93;9.82;;;17.10;45.20;;;;;;5050237;28;20132;-36
2022/12/10 05:11:14;;;;;;;11.13;8.85;;;17.10;45.10;;;;;;5051502;28;20045;-36
2022/12/10 05:13:41;;;;;;;11.18;8.65;;;17.10;45.10;;;;;;5051058;28;20052;-36
2022/12/10 05:16:10;;;;;;;11.25;8.93;;;17.20;45.00;;;;;;5051356;28;20061;-36
2022/12/10 05:18:37;;;;;;;9.95;8.15;;;17.20;45.10;;;;;;5051434;28;20045;-36
2022/12/10 05:21:06;;;;;;;11.80;9.13;;;17.20;45.10;;;;;;5051021;28;20053;-37
2022/12/10 05:23:31;;;;;;;12.30;9.45;;;17.20;45.10;;;;;;5050711;28;20136;-36
2022/12/10 05:25:59;;;;;;;12.35;9.82;;;17.20;45.00;;;;;;5051505;28;20128;-36
2022/12/10 05:28:26;;;;;;;11.88;9.50;;;17.30;44.90;;;;;;5050939;28;20056;-36
2022/12/10 05:30:53;;;;;;;10.50;8.65;;;17.30;44.80;;;;;;5051274;28;20083;-36
2022/12/10 05:33:20;;;;;;;11.73;8.98;;;17.30;44.80;;;;;;5050594;28;20053;-36
2022/12/10 05:35:53;;;;;;;10.57;8.75;;;17.30;44.90;;;;;;5051016;28;20053;-37
2022/12/10 05:38:21;;;;;;;12.15;9.13;;;17.40;44.90;;;;;;5043083;28;20053;-36
2022/12/10 05:40:47;;;;;;;11.68;8.88;;;17.40;44.90;;;;;;5050727;28;20088;-36
2022/12/10 05:43:14;;;;;;;11.18;8.90;;;17.40;44.80;;;;;;5050194;28;20129;-37
2022/12/10 05:45:41;;;;;;;11.48;9.32;;;17.50;44.70;;;;;;5051078;28;20055;-36
2022/12/10 05:48:07;;;;;;;10.95;8.65;;;17.50;44.60;;;;;;5051086;28;20055;-37
2022/12/10 05:50:34;;;;;;;12.05;9.05;;;17.50;44.70;;;;;;5050962;28;20056;-36
2022/12/10 05:53:01;;;;;;;11.30;8.93;;;17.50;44.70;;;;;;5052145;28;20053;-36
2022/12/10 05:55:31;;;;;;;12.60;8.98;;;17.60;44.70;;;;;;5054511;28;20046;-37
2022/12/10 05:57:58;;;;;;;10.85;9.32;;;17.60;44.60;;;;;;5054379;28;20055;-37
2022/12/10 06:00:24;;;;;;;11.65;9.35;;;17.60;44.50;;;;;;5054710;28;20051;-36
2022/12/10 06:02:51;;;;;;;11.95;9.13;;;17.60;44.40;;;;;;5053139;28;20478;-36
2022/12/10 06:05:18;;;;;;;11.27;8.73;;;17.60;44.50;;;;;;5054370;28;20060;-36
2022/12/10 06:07:45;;;;;;;12.60;9.73;;;17.60;44.50;;;;;;5053935;28;20057;-36
2022/12/10 06:10:12;;;;;;;12.15;9.13;;;17.70;44.40;;;;;;5054289;28;20055;-37
2022/12/10 06:12:40;;;;;;;12.00;9.48;;;17.70;44.40;;;;;;5053750;28;20047;-35
2022/12/10 06:15:07;;;;;;;12.90;9.45;;;17.70;44.30;;;;;;5054238;28;20435;-36
2022/12/10 06:17:36;;;;;;;13.65;9.50;;;17.70;44.30;;;;;;5054284;28;20053;-37
2022/12/10 06:20:02;;;;;;;11.43;9.13;;;17.70;44.30;;;;;;5053999;28;20099;-36
2022/12/10 06:22:29;;;;;;;12.48;8.98;;;17.70;44.30;;;;;;5053807;28;20472;-37
2022/12/10 06:24:56;;;;;;;12.80;9.65;;;17.70;44.40;;;;;;5053639;28;20053;-35
2022/12/10 06:27:22;;;;;;;13.05;9.63;;;17.70;44.30;;;;;;5053977;28;20416;-38
2022/12/10 06:29:50;;;;;;;11.38;8.63;;;17.70;44.30;;;;;;5054101;28;20110;-37
2022/12/10 06:32:17;;;;;;;11.50;9.15;;;17.70;44.30;;;;;;5053352;28;20751;-36
2022/12/10 06:34:44;;;;;;;11.90;8.55;;;17.70;44.40;;;;;;5053943;28;20049;-37
2022/12/10 06:37:10;;;;;;;11.38;9.15;;;17.70;44.50;;;;;;5053107;28;20051;-37
2022/12/10 06:39:37;;;;;;;10.82;8.77;;;17.80;44.70;;;;;;5054001;28;20064;-37
2022/12/10 06:42:05;;;;;;;11.38;9.10;;;17.70;44.70;;;;;;5053357;28;20493;-36
2022/12/10 06:44:32;;;;;;;12.70;9.00;;;17.70;44.60;;;;;;5053831;28;20523;-37
2022/12/10 06:47:00;;;;;;;10.68;8.10;;;17.70;44.70;;;;;;5053761;28;20077;-37
2022/12/10 06:49:26;;;;;;;13.27;8.20;;;17.70;44.70;;;;;;5053696;28;20045;-37
2022/12/10 06:51:53;;;;;;;10.73;8.55;;;17.70;44.70;;;;;;5051946;28;20490;-37
2022/12/10 06:54:20;;;;;;;17.65;8.70;;;17.70;44.70;;;;;;5053191;28;20053;-36
2022/12/10 06:56:46;;;;;;;11.80;8.40;;;17.70;44.60;;;;;;5053247;28;20059;-37
2022/12/10 06:59:13;;;;;;;11.20;8.68;;;17.70;44.60;;;;;;5053593;28;20504;-36
2022/12/10 07:01:40;;;;;;;14.35;9.35;;;17.70;44.60;;;;;;5053423;28;20049;-37
2022/12/10 07:04:09;;;;;;;12.88;8.50;;;17.70;44.50;;;;;;5052801;28;20056;-37
2022/12/10 07:06:35;;;;;;;13.02;9.57;;;17.70;44.50;;;;;;5052891;28;20075;-37
2022/12/10 07:09:02;;;;;;;11.40;8.30;;;17.70;44.60;;;;;;5053312;28;20045;-37
2022/12/10 07:11:30;;;;;;;13.38;9.88;;;17.60;44.40;;;;;;5053170;28;20053;-37
2022/12/10 07:13:57;;;;;;;14.55;9.50;;;17.60;44.40;;;;;;5052746;28;20060;-37
2022/12/10 07:16:25;;;;;;;12.10;9.00;;;17.70;44.40;;;;;;5052918;28;20421;-37
2022/12/10 07:18:52;;;;;;;13.45;9.20;;;17.60;44.30;;;;;;5052678;28;20056;-37
2022/12/10 07:21:21;;;;;;;13.77;9.32;;;17.60;44.30;;;;;;5052526;28;20162;-36
2022/12/10 07:23:47;;;;;;;13.50;9.77;;;17.60;44.40;;;;;;5053105;28;20048;-37
2022/12/10 07:26:14;;;;;;;12.80;8.95;;;17.60;44.40;;;;;;5051178;28;20389;-37
2022/12/10 07:28:41;;;;;;;12.63;9.63;;;17.60;44.40;;;;;;5052714;28;20410;-37
2022/12/10 07:31:08;;;;;;;12.32;9.52;;;17.60;44.40;;;;;;5051350;28;20482;-37
2022/12/10 07:33:35;;;;;;;11.85;9.00;;;17.50;44.40;;;;;;5052058;28;20146;-37
2022/12/10 07:36:04;;;;;;;12.88;9.18;;;17.50;44.40;;;;;;5051442;28;20405;-37
2022/12/10 07:38:33;;;;;;;14.63;9.57;;;17.50;44.50;;;;;;5052558;28;20493;-38
2022/12/10 07:41:03;;;;;;;14.68;8.82;;;17.50;44.30;;;;;;5052432;28;20059;-38
2022/12/10 07:43:30;;;;;;;16.60;9.77;;;17.50;44.30;;;;;;5052170;28;20424;-35
2022/12/10 07:45:56;;;;;;;16.20;9.55;;;17.50;44.30;;;;;;5052111;28;20151;-35
2022/12/10 07:48:23;;;;;;;11.80;9.32;;;17.50;44.30;;;;;;5051759;28;20417;-36
2022/12/10 07:50:56;;;;;;;16.88;9.85;;;17.50;44.40;;;;;;5052381;28;20067;-35
2022/12/10 07:53:23;;;;;;;11.73;9.07;;;17.50;44.40;;;;;;5051641;28;20055;-36
2022/12/10 07:55:51;;;;;;;12.20;9.13;;;17.50;44.40;;;;;;5051890;28;20417;-35
2022/12/10 07:58:18;;;;;;;13.85;9.50;;;17.50;44.40;;;;;;5050859;28;20040;-35
2022/12/10 08:00:45;;;;;;;12.57;9.50;;;17.50;44.40;;;;;;5051504;28;20095;-35
2022/12/10 08:03:11;;;;;;;13.10;9.85;;;17.50;44.40;;;;;;5051471;28;20040;-36
2022/12/10 08:05:38;;;;;;;13.27;9.68;;;17.50;44.30;;;;;;5051903;28;20049;-35
2022/12/10 08:08:05;;;;;;;11.43;9.07;;;17.50;44.40;;;;;;5051996;28;20053;-35
2022/12/10 08:10:34;;;;;;;12.35;9.38;;;17.50;44.40;;;;;;5051822;28;20055;-36
2022/12/10 08:13:02;;;;;;;12.77;9.93;;;17.50;44.60;;;;;;5050663;28;20045;-35
2022/12/10 08:15:29;;;;;;;13.52;9.40;;;17.50;44.70;;;;;;5050465;28;20404;-35
2022/12/10 08:17:55;;;;;;;13.57;9.15;;;17.50;44.80;;;;;;5051359;28;20127;-35
2022/12/10 08:20:22;;;;;;;12.82;9.32;;;17.70;44.90;;;;;;5051572;28;20065;-36
2022/12/10 08:22:49;;;;;;;15.07;10.02;;;17.50;44.90;;;;;;5051592;28;20051;-36
2022/12/10 08:25:16;;;;;;;13.65;8.93;;;17.50;44.90;;;;;;5051748;28;20406;-36
2022/12/10 08:27:43;;;;;;;13.30;9.95;;;17.60;44.90;;;;;;5051216;28;20045;-36
2022/12/10 08:30:12;;;;;;;12.52;9.63;;;17.50;44.90;;;;;;5049944;28;20059;-36
2022/12/10 08:32:38;;;;;;;13.60;9.20;;;17.60;45.00;;;;;;5050411;28;20489;-35
2022/12/10 08:35:06;;;;;;;13.75;9.75;;;17.60;45.00;;;;;;5051093;28;20044;-35
2022/12/10 08:37:33;;;;;;;12.50;9.10;;;17.60;45.00;;;;;;5050296;28;20148;-36
2022/12/10 08:39:59;;;;;;;12.90;8.80;;;17.70;45.10;;;;;;5049772;28;20052;-35
2022/12/10 08:42:26;;;;;;;12.77;9.05;;;17.70;45.10;;;;;;5050634;28;20462;-35
2022/12/10 08:44:53;;;;;;;14.05;8.82;;;17.70;45.10;;;;;;5050788;28;20520;-36
2022/12/10 08:47:21;;;;;;;10.55;8.80;;;17.80;45.20;;;;;;5051226;28;20048;-36
2022/12/10 08:49:47;;;;;;;11.85;8.70;;;17.80;45.10;;;;;;5050954;28;20423;-36
2022/12/10 08:52:14;;;;;;;10.32;8.32;;;17.80;45.10;;;;;;5049847;28;20060;-36
2022/12/10 08:54:41;;;;;;;13.10;9.23;;;17.80;45.00;;;;;;5050996;28;20049;-36
2022/12/10 08:57:07;;;;;;;11.05;8.27;;;17.90;45.00;;;;;;5050936;28;20049;-36
2022/12/10 08:59:34;;;;;;;9.80;8.40;;;17.90;45.00;;;;;;5051066;28;20059;-36
2022/12/10 09:02:01;;;;;;;12.50;8.95;;;18.00;45.10;;;;;;5051330;28;20041;-36
2022/12/10 09:04:29;;;;;;;12.52;8.52;;;18.00;45.00;;;;;;5051079;28;20049;-36
2022/12/10 09:06:56;;;;;;;12.07;8.38;;;18.10;45.00;;;;;;5051240;28;20128;-36
2022/12/10 09:09:22;;;;;;;12.93;8.70;;;18.10;45.00;;;;;;5050566;28;20051;-36
2022/12/10 09:11:49;;;;;;;10.93;8.48;;;18.10;44.90;;;;;;5051138;28;20460;-36
2022/12/10 09:14:16;;;;;;;10.30;7.93;;;18.20;44.90;;;;;;5050396;28;20041;-36
2022/12/10 09:16:43;;;;;;;10.63;8.05;;;18.20;44.90;;;;;;5050794;28;20051;-36
2022/12/10 09:19:09;;;;;;;10.45;8.00;;;18.20;44.80;;;;;;5050268;28;20045;-36
2022/12/10 09:21:37;;;;;;;11.13;8.10;;;18.30;44.80;;;;;;5050761;28;20045;-36
2022/12/10 09:24:05;;;;;;;9.40;7.60;;;18.30;44.80;;;;;;5050656;28;20404;-36
2022/12/10 09:26:32;;;;;;;10.30;7.63;;;18.40;44.80;;;;;;5051208;28;20504;-36
2022/12/10 09:28:59;;;;;;;11.77;8.18;;;18.40;44.80;;;;;;5054883;28;20045;-37
2022/12/10 09:31:26;;;;;;;12.43;7.85;;;18.40;44.70;;;;;;5054728;28;20048;-36
2022/12/10 09:33:53;;;;;;;10.05;7.75;;;18.50;44.80;;;;;;5054412;28;20047;-36
2022/12/10 09:36:21;;;;;;;10.43;7.68;;;18.50;44.70;;;;;;5054130;28;20041;-36
2022/12/10 09:38:49;;;;;;;10.40;7.72;;;18.60;44.80;;;;;;4164254;28;10000621;-37
2022/12/10 09:41:38;;;;;;;10.20;7.65;;;18.60;44.70;;;;;;5023566;28;20125;-36
2022/12/10 09:44:06;;;;;;;9.95;7.43;;;18.70;44.70;;;;;;5024298;28;20054;-36
2022/12/10 09:46:38;;;;;;;9.73;7.13;;;18.70;44.70;;;;;;5013915;28;20503;-36
2022/12/10 09:49:09;;;;;;;10.80;8.00;;;18.80;44.70;;;;;;5014675;28;20068;-36
2022/12/10 09:51:37;;;;;;;14.80;7.45;;;18.80;44.60;;;;;;5013842;28;20053;-37
2022/12/10 09:54:13;;;;;;;9.98;7.53;;;18.90;44.60;;;;;;5014291;28;20045;-36
2022/12/10 09:56:39;;;;;;;9.25;7.38;;;18.90;44.50;;;;;;5014550;28;20053;-36
2022/12/10 09:59:11;;;;;;;9.80;7.80;;;19.00;44.50;;;;;;5014513;28;20053;-36
2022/12/10 10:01:38;;;;;;;10.38;7.50;;;19.00;44.50;;;;;;5014423;28;20153;-36
2022/12/10 10:04:05;;;;;;;12.32;7.53;;;19.10;44.40;;;;;;4899971;28;67679;-36
2022/12/10 10:06:32;;;;;;;10.68;7.65;;;19.10;44.40;;;;;;5062084;28;20049;-36
2022/12/10 10:09:00;;;;;;;9.43;7.10;;;19.20;44.40;;;;;;5051574;28;20503;-36
2022/12/10 10:11:30;;;;;;;9.00;7.43;;;19.20;44.30;;;;;;5053139;28;20052;-36
2022/12/10 10:13:59;;;;;;;8.57;7.10;;;19.20;44.20;;;;;;5051552;28;20056;-36
2022/12/10 10:16:27;;;;;;;9.07;7.03;;;19.30;44.20;;;;;;5062290;28;20390;-36
2022/12/10 10:18:57;;;;;;;7.78;6.20;;;19.30;44.10;;;;;;5053735;28;20056;-36
2022/12/10 10:21:25;;;;;;;9.63;6.85;;;19.40;44.10;;;;;;5053837;28;20060;-37
2022/12/10 10:23:51;;;;;;;9.82;7.72;;;19.40;44.10;;;;;;5053684;28;20041;-36
2022/12/10 10:26:18;;;;;;;9.60;6.80;;;19.40;44.10;;;;;;5053573;28;20059;-36
2022/12/10 10:28:46;;;;;;;9.75;7.10;;;19.40;44.00;;;;;;5053607;28;20044;-36
2022/12/10 10:31:19;;;;;;;8.73;6.63;;;19.50;44.00;;;;;;5054094;28;20391;-36
2022/12/10 10:33:49;;;;;;;9.00;6.78;;;19.50;44.00;;;;;;5052678;28;20075;-36
2022/12/10 10:36:16;;;;;;;9.73;7.47;;;19.50;43.90;;;;;;5046673;28;20045;-37
2022/12/10 10:38:48;;;;;;;8.75;6.72;;;19.60;44.00;;;;;;5032932;28;20050;-36
2022/12/10 10:41:15;;;;;;;10.40;7.00;;;19.60;43.90;;;;;;5033936;28;20076;-36
2022/12/10 10:43:44;;;;;;;10.73;7.18;;;19.60;43.90;;;;;;5033488;28;20164;-36
2022/12/10 10:46:14;;;;;;;10.27;7.20;;;19.70;43.90;;;;;;5038778;28;20452;-36
2022/12/10 10:48:40;;;;;;;9.70;7.40;;;19.70;43.80;;;;;;5051824;28;20067;-36
2022/12/10 10:51:08;;;;;;;9.15;6.78;;;19.70;43.70;;;;;;5051802;28;20128;-37
2022/12/10 10:53:42;;;;;;;9.32;7.10;;;19.70;43.70;;;;;;5052792;28;20053;-36
2022/12/10 10:56:11;;;;;;;9.02;7.03;;;19.80;43.70;;;;;;5052628;28;20053;-36
2022/12/10 10:58:45;;;;;;;9.55;7.07;;;19.80;43.70;;;;;;5053104;28;20048;-36
2022/12/10 11:01:13;;;;;;;9.20;6.85;;;19.80;43.60;;;;;;5052496;28;20051;-36
2022/12/10 11:03:46;;;;;;;8.10;6.40;;;19.80;43.60;;;;;;5052285;28;20065;-36
2022/12/10 11:06:13;;;;;;;9.25;7.00;;;19.80;43.50;;;;;;5051380;28;20516;-37
2022/12/10 11:08:40;;;;;;;8.57;6.70;;;19.80;43.50;;;;;;5052347;28;20094;-36
2022/12/10 11:11:11;;;;;;;8.98;7.10;;;19.90;43.50;;;;;;5051815;28;20045;-36
2022/12/10 11:13:38;;;;;;;8.57;6.70;;;19.90;43.50;;;;;;5051001;28;20404;-36
2022/12/10 11:16:13;;;;;;;8.88;6.72;;;19.90;43.50;;;;;;5052337;28;20049;-36
2022/12/10 11:18:41;;;;;;;9.30;6.75;;;19.90;43.40;;;;;;5052424;28;20098;-36
2022/12/10 11:21:16;;;;;;;8.63;6.65;;;20.00;43.50;;;;;;5052261;28;20136;-36
2022/12/10 11:23:43;;;;;;;;;;;20.00;43.40;;;;;;5053143;28;20040;-36
2022/12/10 11:26:17;;;;;;;8.85;6.78;;;19.90;43.70;;;;;;5052307;28;19929;-36
2022/12/10 11:28:51;;;;;;;10.40;7.25;;;20.00;43.50;;;;;;5052640;28;20045;-36
2022/12/10 11:31:27;;;;;;;8.70;6.55;;;20.00;43.40;;;;;;5051955;28;20071;-36
2022/12/10 11:33:57;;;;;;;10.35;7.18;;;20.00;43.40;;;;;;5051457;28;20482;-36
2022/12/10 11:36:28;;;;;;;8.50;6.40;;;20.10;43.40;;;;;;5050986;28;20424;-36
2022/12/10 11:38:58;;;;;;;7.88;6.85;;;20.10;43.30;;;;;;5050180;28;20059;-36
2022/12/10 11:41:27;;;;;;;8.55;6.82;;;20.10;43.30;;;;;;5050043;28;20049;-36
2022/12/10 11:44:17;;;;;;;7.82;6.55;;;20.10;43.30;;;;;;5051492;28;20045;-36
2022/12/10 11:46:58;;;;;;;8.88;7.20;;;20.20;43.30;;;;;;5049731;28;20049;-36
2022/12/10 11:49:27;;;;;;;8.68;6.50;;;20.20;43.30;;;;;;5051351;28;20128;-36
2022/12/10 11:52:00;;;;;;;9.02;7.05;;;20.20;43.20;;;;;;5050717;28;20051;-36
2022/12/10 11:54:35;;;;;;;8.32;6.70;;;20.20;43.20;;;;;;5049257;28;20455;-36
2022/12/10 11:57:04;;;;;;;;;;;20.20;43.20;;;;;;5049745;28;20535;-36
2022/12/10 11:59:34;;;;;;;8.35;6.43;;;20.20;43.50;;;;;;5051112;28;19925;-36
2022/12/10 12:02:22;;;;;;;7.93;6.40;;;20.20;43.20;;;;;;5051313;28;20055;-36
2022/12/10 12:05:00;;;;;;;8.05;6.63;;;20.30;43.20;;;;;;5049790;28;20063;-36
2022/12/10 12:07:33;;;;;;;8.30;6.38;;;20.30;43.20;;;;;;5049515;28;20059;-36
2022/12/10 12:10:14;;;;;;;8.43;6.38;;;20.30;43.10;;;;;;5049195;28;20063;-36
2022/12/10 12:12:42;;;;;;;9.65;6.70;;;20.20;43.00;;;;;;5050390;28;20045;-36
2022/12/10 12:15:14;;;;;;;8.68;6.57;;;20.30;43.10;;;;;;5050812;28;20045;-36
2022/12/10 12:17:43;;;;;;;7.93;6.57;;;20.40;43.10;;;;;;5050745;28;20068;-36
2022/12/10 12:20:15;;;;;;;8.52;6.55;;;20.40;43.10;;;;;;5050809;28;20049;-36
2022/12/10 12:22:44;;;;;;;9.07;6.38;;;20.40;43.00;;;;;;5050659;28;20045;-37
2022/12/10 12:25:21;;;;;;;8.80;6.60;;;20.40;43.00;;;;;;5051262;28;20130;-37
2022/12/10 12:27:49;;;;;;;9.32;6.82;;;20.40;43.00;;;;;;5031782;28;20046;-37
2022/12/10 12:30:17;;;;;;;8.75;6.80;;;20.40;43.00;;;;;;5050633;28;20052;-37
2022/12/10 12:32:50;;;;;;;8.38;6.22;;;20.50;43.00;;;;;;5049803;28;20422;-37
2022/12/10 12:35:18;;;;;;;8.05;6.47;;;20.50;43.00;;;;;;5048867;28;20163;-37
2022/12/10 12:37:47;;;;;;;8.77;6.90;;;20.50;43.00;;;;;;5049900;28;20036;-37
2022/12/10 12:40:16;;;;;;;9.07;6.85;;;20.50;43.00;;;;;;5048460;28;20048;-37
2022/12/10 12:42:46;;;;;;;8.13;6.78;;;20.50;43.00;;;;;;5049450;28;20524;-37
2022/12/10 12:45:14;;;;;;;8.27;7.15;;;20.50;42.90;;;;;;5047531;28;20040;-37
2022/12/10 12:47:44;;;;;;;9.30;7.18;;;20.50;42.90;;;;;;5049796;28;20049;-37
2022/12/10 12:50:21;;;;;;;8.77;6.82;;;20.50;42.90;;;;;;5049985;28;20052;-37
2022/12/10 12:52:49;;;;;;;10.10;7.28;;;20.60;42.90;;;;;;5050702;28;20460;-37
2022/12/10 12:55:17;;;;;;;9.05;7.32;;;20.50;42.90;;;;;;5051146;28;20636;-37